createdAt,value
2019-05-15T00:11:29.913Z,32.20
2019-05-15T00:24:52.717Z,32.10
2019-05-15T00:38:15.511Z,32.00
2019-05-15T01:04:39.888Z,31.90
2019-05-15T01:17:49.128Z,31.90
2019-05-15T01:43:59.195Z,32.00
2019-05-15T01:57:06.386Z,32.10
2019-05-15T02:10:13.566Z,32.20
2019-05-15T02:23:20.755Z,32.20
2019-05-15T02:36:29.203Z,32.30
2019-05-15T03:15:44.239Z,32.40
2019-05-15T03:28:51.443Z,32.40
2019-05-15T03:41:58.846Z,32.30
2019-05-15T03:55:05.798Z,32.30
2019-05-15T04:08:13.028Z,32.20
2019-05-15T04:21:20.346Z,32.20
2019-05-15T04:34:44.087Z,32.20
2019-05-15T04:48:09.814Z,32.20
2019-05-15T05:01:29.694Z,32.10
2019-05-15T05:41:00.595Z,33.00
2019-05-15T05:54:08.428Z,34.40
2019-05-15T06:07:15.242Z,35.10
2019-05-15T06:20:22.592Z,35.30
2019-05-15T06:33:29.778Z,34.50
2019-05-15T06:46:53.892Z,34.20
2019-05-15T07:00:19.045Z,34.30
2019-05-15T07:13:39.578Z,34.00
2019-05-15T07:27:02.378Z,33.90
2019-05-15T07:40:25.186Z,32.50
2019-05-15T07:53:48.878Z,32.20
2019-05-15T08:07:10.849Z,31.70
2019-05-15T08:20:33.638Z,30.80
2019-05-15T08:34:09.094Z,30.70
2019-05-15T08:47:19.477Z,31.80
2019-05-15T09:00:44.053Z,32.30
2019-05-15T09:14:04.912Z,31.00
2019-05-15T09:27:27.890Z,30.80
2019-05-15T09:40:51.203Z,30.00
2019-05-15T09:54:13.330Z,30.20
2019-05-15T10:20:42.753Z,29.90
2019-05-15T10:34:05.658Z,30.10
2019-05-15T10:47:28.851Z,29.80
2019-05-15T11:00:51.060Z,30.00
2019-05-15T11:14:13.910Z,29.90
2019-05-15T11:27:38.936Z,30.10
2019-05-15T11:40:59.473Z,30.20
2019-05-15T11:54:22.263Z,29.50
2019-05-15T12:07:47.710Z,29.70
2019-05-15T12:21:08.002Z,29.70
2019-05-15T12:34:30.758Z,29.40
2019-05-15T13:01:18.099Z,29.10
2019-05-15T13:14:39.175Z,29.30
2019-05-15T13:28:02.034Z,29.70
2019-05-15T13:41:24.944Z,30.00
2019-05-15T13:54:48.372Z,30.10
2019-05-15T14:08:10.500Z,30.30
2019-05-15T14:37:23.562Z,31.00
2019-05-15T15:03:48.842Z,31.70
2019-05-15T15:16:55.226Z,31.90
2019-05-15T15:30:02.470Z,32.40
2019-05-15T15:43:10.136Z,32.70
2019-05-15T15:56:18.361Z,33.10
2019-05-15T16:09:24.302Z,33.20
2019-05-15T16:22:48.521Z,32.60
2019-05-15T16:36:10.592Z,30.40
2019-05-15T16:49:33.520Z,29.20
2019-05-15T17:03:08.608Z,28.70
2019-05-15T17:29:20.769Z,27.90
2019-05-15T17:42:28.768Z,28.80
2019-05-15T17:55:35.303Z,29.50
2019-05-15T18:08:42.694Z,29.30
2019-05-15T18:21:50.006Z,30.00
2019-05-15T18:35:14.169Z,30.90
2019-05-15T18:48:38.044Z,30.60
2019-05-15T19:01:59.674Z,30.80
2019-05-15T19:15:22.674Z,31.10
2019-05-15T19:28:45.340Z,31.30
2019-05-15T19:42:08.849Z,31.40
2019-05-15T19:55:30.981Z,31.60
2019-05-15T20:08:53.912Z,31.70
2019-05-15T20:22:18.808Z,31.80
2019-05-15T20:35:39.463Z,32.00
2019-05-15T20:49:02.226Z,32.10
2019-05-15T21:02:25.102Z,32.20
2019-05-15T21:15:48.453Z,32.30
2019-05-15T21:29:10.637Z,32.40
2019-05-15T21:42:33.646Z,32.50
2019-05-15T21:55:58.665Z,32.70
2019-05-15T22:09:19.082Z,32.70
2019-05-15T22:22:41.937Z,32.80
2019-05-15T22:36:04.807Z,32.90
2019-05-15T22:49:28.790Z,33.30
2019-05-15T23:16:25.485Z,33.70
2019-05-15T23:29:32.658Z,33.90
2019-05-15T23:42:39.837Z,34.00
2019-05-15T23:55:47.015Z,34.10
